Terminal Aerodrome Forecast
Issued by NWS Lake Charles, LA

Home | Current Version | Previous Version | Text Only | Print | Product List | Glossary On
Versions: 1 2 3 4 5 6 7 8 9 10 11 12 13 14 15 16 17 18 19 20 21 22 23 24 25
000
FTUS44 KLCH 231726
TAFLCH
TAF
KLCH 231726Z 2318/2418 35006KT P6SM BKN016 OVC025
     FM232100 36006KT P6SM BKN050
     FM240300 33010G20KT 4SM -TSRA OVC019CB
     FM240700 35010KT P6SM FEW019
     FM241300 32009G16KT P6SM SKC=

USA.gov is the U.S. government's official web portal to all federal, state and local government web resources and services.